sensor_id;sensor_type;location;lat;lon;timestamp;P1;durP1;ratioP1;P2;durP2;ratioP2
65998;SDS011;52766;56.008;37.440;2023-04-25T00:02:10;14.27;;;6.18;;
65998;SDS011;52766;56.008;37.440;2023-04-25T00:04:37;13.60;;;5.35;;
65998;SDS011;52766;56.008;37.440;2023-04-25T00:07:05;18.15;;;6.90;;
65998;SDS011;52766;56.008;37.440;2023-04-25T00:09:33;16.23;;;6.25;;
65998;SDS011;52766;56.008;37.440;2023-04-25T00:12:00;16.42;;;6.03;;
65998;SDS011;52766;56.008;37.440;2023-04-25T00:14:26;12.88;;;5.55;;
65998;SDS011;52766;56.008;37.440;2023-04-25T00:16:53;14.57;;;6.78;;
65998;SDS011;52766;56.008;37.440;2023-04-25T00:19:19;14.55;;;6.60;;
65998;SDS011;52766;56.008;37.440;2023-04-25T00:21:45;15.07;;;6.63;;
65998;SDS011;52766;56.008;37.440;2023-04-25T00:24:13;10.60;;;6.00;;
65998;SDS011;52766;56.008;37.440;2023-04-25T00:26:39;15.57;;;6.90;;
65998;SDS011;52766;56.008;37.440;2023-04-25T00:29:05;16.92;;;6.88;;
65998;SDS011;52766;56.008;37.440;2023-04-25T00:31:31;14.85;;;6.50;;
65998;SDS011;52766;56.008;37.440;2023-04-25T00:33:57;14.63;;;7.38;;
65998;SDS011;52766;56.008;37.440;2023-04-25T00:36:23;13.85;;;6.50;;
65998;SDS011;52766;56.008;37.440;2023-04-25T00:38:48;13.77;;;6.30;;
65998;SDS011;52766;56.008;37.440;2023-04-25T00:41:15;13.95;;;6.38;;
65998;SDS011;52766;56.008;37.440;2023-04-25T00:43:43;16.45;;;6.20;;
65998;SDS011;52766;56.008;37.440;2023-04-25T00:46:11;18.33;;;5.95;;
65998;SDS011;52766;56.008;37.440;2023-04-25T00:48:40;17.77;;;6.60;;
65998;SDS011;52766;56.008;37.440;2023-04-25T00:51:07;13.70;;;5.65;;
65998;SDS011;52766;56.008;37.440;2023-04-25T00:53:33;10.68;;;6.32;;
65998;SDS011;52766;56.008;37.440;2023-04-25T00:56:03;11.45;;;6.70;;
65998;SDS011;52766;56.008;37.440;2023-04-25T00:58:29;16.35;;;5.72;;
65998;SDS011;52766;56.008;37.440;2023-04-25T01:00:57;14.55;;;6.40;;
65998;SDS011;52766;56.008;37.440;2023-04-25T01:03:24;12.30;;;5.93;;
65998;SDS011;52766;56.008;37.440;2023-04-25T01:05:54;13.30;;;6.68;;
65998;SDS011;52766;56.008;37.440;2023-04-25T01:08:21;12.85;;;6.25;;
65998;SDS011;52766;56.008;37.440;2023-04-25T01:10:49;13.23;;;6.15;;
65998;SDS011;52766;56.008;37.440;2023-04-25T01:13:15;14.73;;;6.70;;
65998;SDS011;52766;56.008;37.440;2023-04-25T01:15:41;16.25;;;6.07;;
65998;SDS011;52766;56.008;37.440;2023-04-25T01:18:15;13.50;;;6.53;;
65998;SDS011;52766;56.008;37.440;2023-04-25T01:20:55;15.40;;;6.57;;
65998;SDS011;52766;56.008;37.440;2023-04-25T01:23:21;16.33;;;7.05;;
65998;SDS011;52766;56.008;37.440;2023-04-25T01:25:48;16.90;;;6.88;;
65998;SDS011;52766;56.008;37.440;2023-04-25T01:28:17;16.20;;;6.57;;
65998;SDS011;52766;56.008;37.440;2023-04-25T01:30:46;17.88;;;6.55;;
65998;SDS011;52766;56.008;37.440;2023-04-25T01:33:12;13.43;;;5.85;;
65998;SDS011;52766;56.008;37.440;2023-04-25T01:38:09;17.20;;;6.57;;
65998;SDS011;52766;56.008;37.440;2023-04-25T01:40:37;16.10;;;6.63;;
65998;SDS011;52766;56.008;37.440;2023-04-25T01:43:05;19.45;;;7.07;;
65998;SDS011;52766;56.008;37.440;2023-04-25T01:45:33;17.25;;;6.50;;
65998;SDS011;52766;56.008;37.440;2023-04-25T01:48:02;19.33;;;6.03;;
65998;SDS011;52766;56.008;37.440;2023-04-25T01:50:28;14.10;;;6.82;;
65998;SDS011;52766;56.008;37.440;2023-04-25T01:52:55;15.30;;;6.20;;
65998;SDS011;52766;56.008;37.440;2023-04-25T01:55:21;12.50;;;6.50;;
65998;SDS011;52766;56.008;37.440;2023-04-25T01:57:59;15.13;;;6.22;;
65998;SDS011;52766;56.008;37.440;2023-04-25T02:00:46;14.57;;;6.53;;
65998;SDS011;52766;56.008;37.440;2023-04-25T02:03:12;14.27;;;6.32;;
65998;SDS011;52766;56.008;37.440;2023-04-25T02:05:38;12.85;;;6.93;;
65998;SDS011;52766;56.008;37.440;2023-04-25T02:08:08;23.13;;;7.30;;
65998;SDS011;52766;56.008;37.440;2023-04-25T02:10:40;15.80;;;6.35;;
65998;SDS011;52766;56.008;37.440;2023-04-25T02:13:28;26.27;;;7.32;;
65998;SDS011;52766;56.008;37.440;2023-04-25T02:16:02;19.75;;;6.82;;
65998;SDS011;52766;56.008;37.440;2023-04-25T02:18:32;18.05;;;7.55;;
65998;SDS011;52766;56.008;37.440;2023-04-25T02:20:59;19.25;;;7.47;;
65998;SDS011;52766;56.008;37.440;2023-04-25T02:23:27;16.77;;;6.57;;
65998;SDS011;52766;56.008;37.440;2023-04-25T02:25:55;17.85;;;7.28;;
65998;SDS011;52766;56.008;37.440;2023-04-25T02:28:23;19.70;;;7.07;;
65998;SDS011;52766;56.008;37.440;2023-04-25T02:30:59;15.27;;;7.07;;
65998;SDS011;52766;56.008;37.440;2023-04-25T02:33:27;17.88;;;8.02;;
65998;SDS011;52766;56.008;37.440;2023-04-25T02:35:57;24.30;;;7.82;;
65998;SDS011;52766;56.008;37.440;2023-04-25T02:38:23;15.80;;;6.35;;
65998;SDS011;52766;56.008;37.440;2023-04-25T02:40:50;12.88;;;6.40;;
65998;SDS011;52766;56.008;37.440;2023-04-25T02:43:18;20.48;;;6.88;;
65998;SDS011;52766;56.008;37.440;2023-04-25T02:45:45;19.67;;;7.07;;
65998;SDS011;52766;56.008;37.440;2023-04-25T02:48:16;19.15;;;7.65;;
65998;SDS011;52766;56.008;37.440;2023-04-25T02:50:43;17.20;;;7.85;;
65998;SDS011;52766;56.008;37.440;2023-04-25T02:53:11;14.15;;;7.35;;
65998;SDS011;52766;56.008;37.440;2023-04-25T02:55:43;18.02;;;7.30;;
65998;SDS011;52766;56.008;37.440;2023-04-25T02:58:10;21.17;;;7.47;;
65998;SDS011;52766;56.008;37.440;2023-04-25T03:00:47;14.45;;;6.72;;
65998;SDS011;52766;56.008;37.440;2023-04-25T03:03:16;15.80;;;6.95;;
65998;SDS011;52766;56.008;37.440;2023-04-25T03:05:44;15.90;;;7.35;;
65998;SDS011;52766;56.008;37.440;2023-04-25T03:08:17;13.68;;;7.30;;
65998;SDS011;52766;56.008;37.440;2023-04-25T03:10:44;22.38;;;7.65;;
65998;SDS011;52766;56.008;37.440;2023-04-25T03:13:14;16.67;;;6.82;;
65998;SDS011;52766;56.008;37.440;2023-04-25T03:15:43;18.35;;;6.85;;
65998;SDS011;52766;56.008;37.440;2023-04-25T03:18:09;17.10;;;5.47;;
65998;SDS011;52766;56.008;37.440;2023-04-25T03:20:35;12.57;;;4.55;;
65998;SDS011;52766;56.008;37.440;2023-04-25T03:23:03;10.07;;;5.30;;
65998;SDS011;52766;56.008;37.440;2023-04-25T03:25:29;48.78;;;7.47;;
65998;SDS011;52766;56.008;37.440;2023-04-25T03:27:57;10.38;;;4.50;;
65998;SDS011;52766;56.008;37.440;2023-04-25T03:30:23;23.50;;;4.82;;
65998;SDS011;52766;56.008;37.440;2023-04-25T03:32:50;6.97;;;4.47;;
65998;SDS011;52766;56.008;37.440;2023-04-25T03:35:17;4.60;;;3.38;;
65998;SDS011;52766;56.008;37.440;2023-04-25T03:37:47;6.25;;;3.10;;
65998;SDS011;52766;56.008;37.440;2023-04-25T03:40:22;6.20;;;3.65;;
65998;SDS011;52766;56.008;37.440;2023-04-25T03:43:05;7.15;;;3.78;;
65998;SDS011;52766;56.008;37.440;2023-04-25T03:45:34;6.50;;;3.83;;
65998;SDS011;52766;56.008;37.440;2023-04-25T03:48:12;8.13;;;4.57;;
65998;SDS011;52766;56.008;37.440;2023-04-25T03:50:40;9.70;;;4.22;;
65998;SDS011;52766;56.008;37.440;2023-04-25T03:53:14;10.38;;;4.55;;
65998;SDS011;52766;56.008;37.440;2023-04-25T03:56:01;9.15;;;4.43;;
65998;SDS011;52766;56.008;37.440;2023-04-25T03:58:31;11.15;;;4.55;;
65998;SDS011;52766;56.008;37.440;2023-04-25T04:01:01;11.88;;;4.95;;
65998;SDS011;52766;56.008;37.440;2023-04-25T04:03:40;10.23;;;5.00;;
65998;SDS011;52766;56.008;37.440;2023-04-25T04:06:08;13.07;;;4.88;;
65998;SDS011;52766;56.008;37.440;2023-04-25T04:09:20;12.50;;;4.95;;
65998;SDS011;52766;56.008;37.440;2023-04-25T04:11:52;8.70;;;4.53;;
65998;SDS011;52766;56.008;37.440;2023-04-25T04:14:21;9.77;;;4.45;;
65998;SDS011;52766;56.008;37.440;2023-04-25T04:16:53;8.63;;;4.60;;
65998;SDS011;52766;56.008;37.440;2023-04-25T04:19:22;14.07;;;4.93;;
65998;SDS011;52766;56.008;37.440;2023-04-25T04:22:21;9.45;;;4.60;;
65998;SDS011;52766;56.008;37.440;2023-04-25T04:28:05;11.80;;;4.70;;
65998;SDS011;52766;56.008;37.440;2023-04-25T04:30:56;10.30;;;4.45;;
65998;SDS011;52766;56.008;37.440;2023-04-25T04:36:00;10.32;;;4.80;;
65998;SDS011;52766;56.008;37.440;2023-04-25T04:38:31;10.15;;;4.70;;
65998;SDS011;52766;56.008;37.440;2023-04-25T04:43:40;11.48;;;5.43;;
65998;SDS011;52766;56.008;37.440;2023-04-25T04:46:24;9.75;;;5.32;;
65998;SDS011;52766;56.008;37.440;2023-04-25T04:49:10;13.77;;;5.55;;
65998;SDS011;52766;56.008;37.440;2023-04-25T04:52:06;13.45;;;5.63;;
65998;SDS011;52766;56.008;37.440;2023-04-25T04:54:54;8.45;;;3.90;;
65998;SDS011;52766;56.008;37.440;2023-04-25T04:57:40;10.07;;;4.43;;
65998;SDS011;52766;56.008;37.440;2023-04-25T05:00:32;12.65;;;5.88;;
65998;SDS011;52766;56.008;37.440;2023-04-25T05:03:22;10.55;;;4.97;;
65998;SDS011;52766;56.008;37.440;2023-04-25T05:06:06;11.20;;;4.70;;
65998;SDS011;52766;56.008;37.440;2023-04-25T05:08:51;14.65;;;6.22;;
65998;SDS011;52766;56.008;37.440;2023-04-25T05:11:18;21.10;;;6.53;;
65998;SDS011;52766;56.008;37.440;2023-04-25T05:14:14;26.48;;;6.20;;
65998;SDS011;52766;56.008;37.440;2023-04-25T05:17:02;26.90;;;6.20;;
65998;SDS011;52766;56.008;37.440;2023-04-25T05:20:03;16.45;;;5.00;;
65998;SDS011;52766;56.008;37.440;2023-04-25T05:23:01;18.40;;;6.07;;
65998;SDS011;52766;56.008;37.440;2023-04-25T05:25:48;16.00;;;6.65;;
65998;SDS011;52766;56.008;37.440;2023-04-25T05:28:37;16.75;;;7.45;;
65998;SDS011;52766;56.008;37.440;2023-04-25T05:31:29;24.05;;;9.45;;
65998;SDS011;52766;56.008;37.440;2023-04-25T05:34:02;22.38;;;9.50;;
65998;SDS011;52766;56.008;37.440;2023-04-25T05:36:51;24.15;;;10.10;;
65998;SDS011;52766;56.008;37.440;2023-04-25T05:39:18;19.13;;;9.30;;
65998;SDS011;52766;56.008;37.440;2023-04-25T05:42:04;19.80;;;8.98;;
65998;SDS011;52766;56.008;37.440;2023-04-25T05:44:56;25.45;;;9.25;;
65998;SDS011;52766;56.008;37.440;2023-04-25T05:47:32;25.17;;;10.50;;
65998;SDS011;52766;56.008;37.440;2023-04-25T05:50:24;22.70;;;9.45;;
65998;SDS011;52766;56.008;37.440;2023-04-25T05:52:59;23.70;;;10.55;;
65998;SDS011;52766;56.008;37.440;2023-04-25T05:55:30;28.77;;;11.80;;
65998;SDS011;52766;56.008;37.440;2023-04-25T05:57:58;27.85;;;11.32;;
65998;SDS011;52766;56.008;37.440;2023-04-25T06:00:27;32.85;;;10.40;;
65998;SDS011;52766;56.008;37.440;2023-04-25T06:02:53;26.35;;;10.27;;
65998;SDS011;52766;56.008;37.440;2023-04-25T06:05:19;25.17;;;12.45;;
65998;SDS011;52766;56.008;37.440;2023-04-25T06:07:49;22.90;;;9.43;;
65998;SDS011;52766;56.008;37.440;2023-04-25T06:10:15;25.67;;;10.05;;
65998;SDS011;52766;56.008;37.440;2023-04-25T06:12:42;15.85;;;9.93;;
65998;SDS011;52766;56.008;37.440;2023-04-25T06:15:09;22.92;;;10.23;;
65998;SDS011;52766;56.008;37.440;2023-04-25T06:17:35;20.85;;;10.35;;
65998;SDS011;52766;56.008;37.440;2023-04-25T06:20:03;24.63;;;11.15;;
65998;SDS011;52766;56.008;37.440;2023-04-25T06:22:30;17.48;;;9.73;;
65998;SDS011;52766;56.008;37.440;2023-04-25T06:24:56;25.00;;;11.85;;
65998;SDS011;52766;56.008;37.440;2023-04-25T06:27:24;34.97;;;13.05;;
65998;SDS011;52766;56.008;37.440;2023-04-25T06:29:52;18.88;;;11.25;;
65998;SDS011;52766;56.008;37.440;2023-04-25T06:32:18;22.13;;;9.93;;
65998;SDS011;52766;56.008;37.440;2023-04-25T06:34:44;19.58;;;9.57;;
65998;SDS011;52766;56.008;37.440;2023-04-25T06:37:12;15.15;;;8.85;;
65998;SDS011;52766;56.008;37.440;2023-04-25T06:39:43;14.02;;;8.02;;
65998;SDS011;52766;56.008;37.440;2023-04-25T06:42:12;19.88;;;9.20;;
65998;SDS011;52766;56.008;37.440;2023-04-25T06:44:57;23.83;;;9.55;;
65998;SDS011;52766;56.008;37.440;2023-04-25T06:47:23;19.52;;;8.95;;
65998;SDS011;52766;56.008;37.440;2023-04-25T06:49:50;16.85;;;8.73;;
65998;SDS011;52766;56.008;37.440;2023-04-25T06:52:16;15.75;;;9.35;;
65998;SDS011;52766;56.008;37.440;2023-04-25T06:54:44;16.00;;;8.43;;
65998;SDS011;52766;56.008;37.440;2023-04-25T06:57:40;22.20;;;9.65;;
65998;SDS011;52766;56.008;37.440;2023-04-25T07:00:32;18.38;;;8.52;;
65998;SDS011;52766;56.008;37.440;2023-04-25T07:02:59;18.58;;;7.85;;
65998;SDS011;52766;56.008;37.440;2023-04-25T07:05:25;13.15;;;6.72;;
65998;SDS011;52766;56.008;37.440;2023-04-25T07:07:56;12.57;;;6.78;;
65998;SDS011;52766;56.008;37.440;2023-04-25T07:10:23;14.45;;;6.43;;
65998;SDS011;52766;56.008;37.440;2023-04-25T07:12:50;12.50;;;6.28;;
65998;SDS011;52766;56.008;37.440;2023-04-25T07:15:16;22.23;;;11.65;;
65998;SDS011;52766;56.008;37.440;2023-04-25T07:17:46;15.75;;;7.28;;
65998;SDS011;52766;56.008;37.440;2023-04-25T07:20:15;12.10;;;6.50;;
65998;SDS011;52766;56.008;37.440;2023-04-25T07:22:45;11.95;;;6.25;;
65998;SDS011;52766;56.008;37.440;2023-04-25T07:28:08;11.95;;;6.07;;
65998;SDS011;52766;56.008;37.440;2023-04-25T07:30:35;10.02;;;5.85;;
65998;SDS011;52766;56.008;37.440;2023-04-25T07:33:03;24.70;;;13.07;;
65998;SDS011;52766;56.008;37.440;2023-04-25T07:35:29;26.67;;;12.30;;
65998;SDS011;52766;56.008;37.440;2023-04-25T07:37:59;15.10;;;5.95;;
65998;SDS011;52766;56.008;37.440;2023-04-25T07:40:28;9.85;;;5.40;;
65998;SDS011;52766;56.008;37.440;2023-04-25T07:43:00;9.38;;;4.80;;
65998;SDS011;52766;56.008;37.440;2023-04-25T07:45:36;14.07;;;5.47;;
65998;SDS011;52766;56.008;37.440;2023-04-25T07:48:03;8.00;;;5.07;;
65998;SDS011;52766;56.008;37.440;2023-04-25T07:50:33;11.18;;;5.45;;
65998;SDS011;52766;56.008;37.440;2023-04-25T07:53:00;10.93;;;4.85;;
65998;SDS011;52766;56.008;37.440;2023-04-25T07:55:31;10.35;;;5.55;;
65998;SDS011;52766;56.008;37.440;2023-04-25T07:58:06;8.98;;;5.00;;
65998;SDS011;52766;56.008;37.440;2023-04-25T08:00:33;9.80;;;4.95;;
65998;SDS011;52766;56.008;37.440;2023-04-25T08:03:23;12.63;;;5.40;;
65998;SDS011;52766;56.008;37.440;2023-04-25T08:05:49;13.00;;;5.85;;
65998;SDS011;52766;56.008;37.440;2023-04-25T08:08:18;16.92;;;6.10;;
65998;SDS011;52766;56.008;37.440;2023-04-25T08:10:44;12.57;;;6.13;;
65998;SDS011;52766;56.008;37.440;2023-04-25T08:13:17;12.20;;;5.65;;
65998;SDS011;52766;56.008;37.440;2023-04-25T08:15:56;11.05;;;6.10;;
65998;SDS011;52766;56.008;37.440;2023-04-25T08:18:23;10.55;;;5.22;;
65998;SDS011;52766;56.008;37.440;2023-04-25T08:20:50;12.13;;;5.55;;
65998;SDS011;52766;56.008;37.440;2023-04-25T08:23:16;14.52;;;5.57;;
65998;SDS011;52766;56.008;37.440;2023-04-25T08:25:49;9.23;;;5.35;;
65998;SDS011;52766;56.008;37.440;2023-04-25T08:28:19;12.55;;;5.80;;
65998;SDS011;52766;56.008;37.440;2023-04-25T08:30:47;13.50;;;4.78;;
65998;SDS011;52766;56.008;37.440;2023-04-25T08:33:14;15.98;;;5.60;;
65998;SDS011;52766;56.008;37.440;2023-04-25T08:36:01;12.77;;;5.60;;
65998;SDS011;52766;56.008;37.440;2023-04-25T08:38:29;11.48;;;4.80;;
65998;SDS011;52766;56.008;37.440;2023-04-25T08:40:56;8.65;;;4.55;;
65998;SDS011;52766;56.008;37.440;2023-04-25T08:43:23;9.60;;;5.20;;
65998;SDS011;52766;56.008;37.440;2023-04-25T08:45:52;10.30;;;4.57;;
65998;SDS011;52766;56.008;37.440;2023-04-25T08:48:40;12.85;;;5.88;;
65998;SDS011;52766;56.008;37.440;2023-04-25T08:51:06;9.60;;;4.88;;
65998;SDS011;52766;56.008;37.440;2023-04-25T08:53:33;11.48;;;4.63;;
65998;SDS011;52766;56.008;37.440;2023-04-25T08:56:02;9.45;;;4.75;;
65998;SDS011;52766;56.008;37.440;2023-04-25T08:58:33;11.23;;;4.72;;
65998;SDS011;52766;56.008;37.440;2023-04-25T09:00:59;11.30;;;5.07;;
65998;SDS011;52766;56.008;37.440;2023-04-25T09:03:27;10.63;;;4.70;;
65998;SDS011;52766;56.008;37.440;2023-04-25T09:05:55;13.73;;;5.75;;
65998;SDS011;52766;56.008;37.440;2023-04-25T09:08:21;16.63;;;5.25;;
65998;SDS011;52766;56.008;37.440;2023-04-25T09:10:47;15.75;;;5.63;;
65998;SDS011;52766;56.008;37.440;2023-04-25T09:13:14;9.48;;;5.60;;
65998;SDS011;52766;56.008;37.440;2023-04-25T09:16:15;9.20;;;4.72;;
65998;SDS011;52766;56.008;37.440;2023-04-25T09:19:03;12.43;;;5.03;;
65998;SDS011;52766;56.008;37.440;2023-04-25T09:21:30;15.10;;;5.93;;
65998;SDS011;52766;56.008;37.440;2023-04-25T09:24:06;17.42;;;5.93;;
65998;SDS011;52766;56.008;37.440;2023-04-25T09:26:35;14.90;;;6.72;;
65998;SDS011;52766;56.008;37.440;2023-04-25T09:29:14;11.77;;;5.60;;
65998;SDS011;52766;56.008;37.440;2023-04-25T09:31:46;14.65;;;6.13;;
65998;SDS011;52766;56.008;37.440;2023-04-25T09:34:17;14.43;;;5.47;;
65998;SDS011;52766;56.008;37.440;2023-04-25T09:36:53;12.60;;;4.88;;
65998;SDS011;52766;56.008;37.440;2023-04-25T09:39:52;10.05;;;5.05;;
65998;SDS011;52766;56.008;37.440;2023-04-25T09:42:23;10.18;;;4.53;;
65998;SDS011;52766;56.008;37.440;2023-04-25T09:44:51;9.85;;;5.38;;
65998;SDS011;52766;56.008;37.440;2023-04-25T09:47:18;10.68;;;4.95;;
65998;SDS011;52766;56.008;37.440;2023-04-25T09:49:47;10.13;;;4.55;;
65998;SDS011;52766;56.008;37.440;2023-04-25T09:52:17;12.27;;;4.53;;
65998;SDS011;52766;56.008;37.440;2023-04-25T09:57:44;13.27;;;4.82;;
65998;SDS011;52766;56.008;37.440;2023-04-25T10:00:15;9.50;;;5.30;;
65998;SDS011;52766;56.008;37.440;2023-04-25T10:02:44;6.55;;;4.70;;
65998;SDS011;52766;56.008;37.440;2023-04-25T10:05:23;10.43;;;4.93;;
65998;SDS011;52766;56.008;37.440;2023-04-25T10:07:50;9.63;;;4.13;;
65998;SDS011;52766;56.008;37.440;2023-04-25T10:12:51;9.93;;;4.90;;
65998;SDS011;52766;56.008;37.440;2023-04-25T10:15:17;8.57;;;4.47;;
65998;SDS011;52766;56.008;37.440;2023-04-25T10:17:45;14.48;;;6.65;;
65998;SDS011;52766;56.008;37.440;2023-04-25T10:20:11;8.38;;;4.22;;
65998;SDS011;52766;56.008;37.440;2023-04-25T10:22:47;10.95;;;4.53;;
65998;SDS011;52766;56.008;37.440;2023-04-25T10:25:14;12.00;;;4.20;;
65998;SDS011;52766;56.008;37.440;2023-04-25T10:27:40;8.00;;;4.18;;
65998;SDS011;52766;56.008;37.440;2023-04-25T10:30:07;8.90;;;3.67;;
65998;SDS011;52766;56.008;37.440;2023-04-25T10:32:36;9.18;;;3.90;;
65998;SDS011;52766;56.008;37.440;2023-04-25T10:35:10;11.52;;;3.75;;
65998;SDS011;52766;56.008;37.440;2023-04-25T10:38:02;11.30;;;4.13;;
65998;SDS011;52766;56.008;37.440;2023-04-25T10:40:38;8.15;;;3.90;;
65998;SDS011;52766;56.008;37.440;2023-04-25T10:46:12;8.35;;;4.50;;
65998;SDS011;52766;56.008;37.440;2023-04-25T10:48:49;11.18;;;3.72;;
65998;SDS011;52766;56.008;37.440;2023-04-25T10:56:31;11.32;;;4.10;;
65998;SDS011;52766;56.008;37.440;2023-04-25T10:59:17;9.05;;;3.92;;
65998;SDS011;52766;56.008;37.440;2023-04-25T11:01:48;8.68;;;3.88;;
65998;SDS011;52766;56.008;37.440;2023-04-25T11:04:20;8.52;;;4.18;;
65998;SDS011;52766;56.008;37.440;2023-04-25T11:09:27;8.50;;;3.30;;
65998;SDS011;52766;56.008;37.440;2023-04-25T11:11:57;13.80;;;4.88;;
65998;SDS011;52766;56.008;37.440;2023-04-25T11:14:25;11.23;;;4.22;;
65998;SDS011;52766;56.008;37.440;2023-04-25T11:16:53;7.93;;;3.45;;
65998;SDS011;52766;56.008;37.440;2023-04-25T11:19:23;6.50;;;3.05;;
65998;SDS011;52766;56.008;37.440;2023-04-25T11:21:56;9.25;;;4.55;;
65998;SDS011;52766;56.008;37.440;2023-04-25T11:27:00;8.68;;;3.90;;
65998;SDS011;52766;56.008;37.440;2023-04-25T11:29:31;5.65;;;3.50;;
65998;SDS011;52766;56.008;37.440;2023-04-25T11:32:04;9.43;;;3.10;;
65998;SDS011;52766;56.008;37.440;2023-04-25T11:34:50;8.50;;;3.70;;
65998;SDS011;52766;56.008;37.440;2023-04-25T11:37:18;7.13;;;3.72;;
65998;SDS011;52766;56.008;37.440;2023-04-25T11:39:44;8.88;;;3.70;;
65998;SDS011;52766;56.008;37.440;2023-04-25T11:42:12;8.05;;;4.68;;
65998;SDS011;52766;56.008;37.440;2023-04-25T11:44:54;6.40;;;3.58;;
65998;SDS011;52766;56.008;37.440;2023-04-25T11:50:34;8.88;;;4.18;;
65998;SDS011;52766;56.008;37.440;2023-04-25T11:55:53;7.90;;;3.72;;
65998;SDS011;52766;56.008;37.440;2023-04-25T11:58:23;10.30;;;5.70;;
65998;SDS011;52766;56.008;37.440;2023-04-25T12:00:50;6.97;;;3.58;;
65998;SDS011;52766;56.008;37.440;2023-04-25T12:03:46;10.10;;;3.60;;
65998;SDS011;52766;56.008;37.440;2023-04-25T12:06:16;9.25;;;3.60;;
65998;SDS011;52766;56.008;37.440;2023-04-25T12:09:02;6.35;;;2.78;;
65998;SDS011;52766;56.008;37.440;2023-04-25T12:11:42;7.10;;;3.20;;
65998;SDS011;52766;56.008;37.440;2023-04-25T12:17:09;10.43;;;3.25;;
65998;SDS011;52766;56.008;37.440;2023-04-25T12:20:09;10.82;;;3.20;;
65998;SDS011;52766;56.008;37.440;2023-04-25T12:22:41;6.88;;;3.35;;
65998;SDS011;52766;56.008;37.440;2023-04-25T12:28:47;8.77;;;3.30;;
65998;SDS011;52766;56.008;37.440;2023-04-25T12:31:16;5.65;;;3.25;;
65998;SDS011;52766;56.008;37.440;2023-04-25T12:33:45;6.80;;;3.20;;
65998;SDS011;52766;56.008;37.440;2023-04-25T12:36:17;5.38;;;2.92;;
65998;SDS011;52766;56.008;37.440;2023-04-25T12:39:16;7.53;;;3.50;;
65998;SDS011;52766;56.008;37.440;2023-04-25T12:41:52;6.43;;;2.72;;
65998;SDS011;52766;56.008;37.440;2023-04-25T12:44:22;5.72;;;2.83;;
65998;SDS011;52766;56.008;37.440;2023-04-25T12:46:48;8.85;;;4.18;;
65998;SDS011;52766;56.008;37.440;2023-04-25T12:49:16;7.72;;;3.20;;
65998;SDS011;52766;56.008;37.440;2023-04-25T12:51:42;8.27;;;3.28;;
65998;SDS011;52766;56.008;37.440;2023-04-25T12:56:40;5.85;;;2.83;;
65998;SDS011;52766;56.008;37.440;2023-04-25T12:59:07;7.60;;;3.42;;
65998;SDS011;52766;56.008;37.440;2023-04-25T13:01:34;6.43;;;3.58;;
65998;SDS011;52766;56.008;37.440;2023-04-25T13:04:00;9.00;;;3.67;;
65998;SDS011;52766;56.008;37.440;2023-04-25T13:06:27;7.93;;;3.45;;
65998;SDS011;52766;56.008;37.440;2023-04-25T13:08:55;6.90;;;3.58;;
65998;SDS011;52766;56.008;37.440;2023-04-25T13:11:22;8.85;;;3.40;;
65998;SDS011;52766;56.008;37.440;2023-04-25T13:13:48;6.40;;;3.05;;
65998;SDS011;52766;56.008;37.440;2023-04-25T13:16:14;7.32;;;3.08;;
65998;SDS011;52766;56.008;37.440;2023-04-25T13:18:41;8.45;;;3.20;;
65998;SDS011;52766;56.008;37.440;2023-04-25T13:21:09;6.82;;;3.83;;
65998;SDS011;52766;56.008;37.440;2023-04-25T13:23:36;8.48;;;3.42;;
65998;SDS011;52766;56.008;37.440;2023-04-25T13:26:04;19.85;;;5.25;;
65998;SDS011;52766;56.008;37.440;2023-04-25T13:28:30;8.27;;;3.42;;
65998;SDS011;52766;56.008;37.440;2023-04-25T13:30:56;7.55;;;3.53;;
65998;SDS011;52766;56.008;37.440;2023-04-25T13:33:21;7.18;;;3.20;;
65998;SDS011;52766;56.008;37.440;2023-04-25T13:35:48;6.10;;;3.58;;
65998;SDS011;52766;56.008;37.440;2023-04-25T13:38:23;8.60;;;3.70;;
65998;SDS011;52766;56.008;37.440;2023-04-25T13:40:50;7.80;;;3.92;;
65998;SDS011;52766;56.008;37.440;2023-04-25T13:43:18;7.90;;;3.45;;
65998;SDS011;52766;56.008;37.440;2023-04-25T13:45:46;6.35;;;3.38;;
65998;SDS011;52766;56.008;37.440;2023-04-25T13:48:12;7.80;;;4.10;;
65998;SDS011;52766;56.008;37.440;2023-04-25T13:50:38;8.95;;;3.88;;
65998;SDS011;52766;56.008;37.440;2023-04-25T13:53:05;8.95;;;3.92;;
65998;SDS011;52766;56.008;37.440;2023-04-25T13:55:30;7.10;;;3.28;;
65998;SDS011;52766;56.008;37.440;2023-04-25T13:57:56;12.40;;;5.07;;
65998;SDS011;52766;56.008;37.440;2023-04-25T14:00:22;13.90;;;4.10;;
65998;SDS011;52766;56.008;37.440;2023-04-25T14:02:49;11.63;;;4.50;;
65998;SDS011;52766;56.008;37.440;2023-04-25T14:05:16;16.65;;;5.15;;
65998;SDS011;52766;56.008;37.440;2023-04-25T14:07:42;8.82;;;4.22;;
65998;SDS011;52766;56.008;37.440;2023-04-25T14:10:08;7.45;;;3.47;;
65998;SDS011;52766;56.008;37.440;2023-04-25T14:12:35;7.65;;;3.70;;
65998;SDS011;52766;56.008;37.440;2023-04-25T14:15:01;8.00;;;3.97;;
65998;SDS011;52766;56.008;37.440;2023-04-25T14:17:31;6.65;;;3.35;;
65998;SDS011;52766;56.008;37.440;2023-04-25T14:19:57;6.88;;;4.00;;
65998;SDS011;52766;56.008;37.440;2023-04-25T14:22:23;6.93;;;4.00;;
65998;SDS011;52766;56.008;37.440;2023-04-25T14:24:51;10.35;;;4.35;;
65998;SDS011;52766;56.008;37.440;2023-04-25T14:27:18;9.95;;;3.63;;
65998;SDS011;52766;56.008;37.440;2023-04-25T14:29:44;6.82;;;3.70;;
65998;SDS011;52766;56.008;37.440;2023-04-25T14:32:14;7.90;;;3.83;;
65998;SDS011;52766;56.008;37.440;2023-04-25T14:34:40;8.60;;;3.75;;
65998;SDS011;52766;56.008;37.440;2023-04-25T14:37:06;7.38;;;3.50;;
65998;SDS011;52766;56.008;37.440;2023-04-25T14:39:33;6.18;;;3.90;;
65998;SDS011;52766;56.008;37.440;2023-04-25T14:45:10;9.45;;;4.10;;
65998;SDS011;52766;56.008;37.440;2023-04-25T14:47:50;7.28;;;3.38;;
65998;SDS011;52766;56.008;37.440;2023-04-25T14:50:16;7.22;;;3.65;;
65998;SDS011;52766;56.008;37.440;2023-04-25T14:52:52;7.03;;;3.97;;
65998;SDS011;52766;56.008;37.440;2023-04-25T14:55:24;7.15;;;4.10;;
65998;SDS011;52766;56.008;37.440;2023-04-25T14:57:50;8.02;;;3.70;;
65998;SDS011;52766;56.008;37.440;2023-04-25T15:00:22;8.25;;;4.03;;
65998;SDS011;52766;56.008;37.440;2023-04-25T15:02:48;8.20;;;4.75;;
65998;SDS011;52766;56.008;37.440;2023-04-25T15:05:14;9.13;;;4.43;;
65998;SDS011;52766;56.008;37.440;2023-04-25T15:07:40;9.57;;;4.75;;
65998;SDS011;52766;56.008;37.440;2023-04-25T15:10:07;6.97;;;4.20;;
65998;SDS011;52766;56.008;37.440;2023-04-25T15:12:44;6.90;;;3.92;;
65998;SDS011;52766;56.008;37.440;2023-04-25T15:15:10;7.00;;;4.22;;
65998;SDS011;52766;56.008;37.440;2023-04-25T15:17:42;7.50;;;4.43;;
65998;SDS011;52766;56.008;37.440;2023-04-25T15:20:08;12.35;;;5.10;;
65998;SDS011;52766;56.008;37.440;2023-04-25T15:22:36;8.82;;;5.00;;
65998;SDS011;52766;56.008;37.440;2023-04-25T15:25:02;13.73;;;7.75;;
65998;SDS011;52766;56.008;37.440;2023-04-25T15:27:32;10.07;;;5.03;;
65998;SDS011;52766;56.008;37.440;2023-04-25T15:29:58;8.32;;;4.35;;
65998;SDS011;52766;56.008;37.440;2023-04-25T15:32:30;10.90;;;4.63;;
65998;SDS011;52766;56.008;37.440;2023-04-25T15:34:57;7.90;;;4.85;;
65998;SDS011;52766;56.008;37.440;2023-04-25T15:37:23;7.40;;;4.30;;
65998;SDS011;52766;56.008;37.440;2023-04-25T15:40:00;8.18;;;4.45;;
65998;SDS011;52766;56.008;37.440;2023-04-25T15:45:14;12.93;;;5.38;;